createdAt,value
2022-08-25T00:01:59.208Z,11.45
2022-08-25T00:05:03.616Z,11.57
2022-08-25T00:08:09.056Z,11.74
2022-08-25T00:11:20.081Z,11.90
2022-08-25T00:14:28.009Z,11.82
2022-08-25T00:17:31.992Z,11.84
2022-08-25T00:20:35.707Z,11.84
2022-08-25T00:23:41.243Z,11.70
2022-08-25T00:26:48.987Z,11.82
2022-08-25T00:29:53.090Z,12.06
2022-08-25T00:32:57.550Z,12.13
2022-08-25T00:36:02.355Z,12.15
2022-08-25T00:39:08.566Z,12.25
2022-08-25T00:42:16.250Z,12.23
2022-08-25T00:45:20.325Z,12.05
2022-08-25T00:48:26.326Z,11.99
2022-08-25T00:51:36.189Z,12.05
2022-08-25T00:55:09.698Z,11.98
2022-08-25T00:58:20.088Z,12.07
2022-08-25T01:01:23.587Z,12.01
2022-08-25T01:04:28.260Z,11.94
2022-08-25T01:07:32.602Z,11.94
2022-08-25T01:10:39.181Z,12.25
2022-08-25T01:13:51.141Z,12.57
2022-08-25T01:16:55.386Z,12.73
2022-08-25T01:19:59.367Z,12.95
2022-08-25T01:23:02.806Z,12.99
2022-08-25T01:26:12.266Z,13.07
2022-08-25T01:29:22.614Z,12.93
2022-08-25T01:32:26.804Z,12.99
2022-08-25T01:35:29.918Z,13.04
2022-08-25T01:38:33.944Z,13.01
2022-08-25T01:41:55.013Z,12.79
2022-08-25T01:44:58.857Z,12.87
2022-08-25T01:48:03.644Z,13.03
2022-08-25T01:51:08.072Z,13.18
2022-08-25T01:54:11.478Z,13.55
2022-08-25T02:01:33.210Z,14.68
2022-08-25T02:04:38.029Z,16.56
2022-08-25T02:07:43.355Z,18.41
2022-08-25T02:10:47.031Z,17.47
2022-08-25T02:13:50.588Z,17.54
2022-08-25T02:16:55.328Z,16.43
2022-08-25T02:19:59.357Z,15.83
2022-08-25T02:23:02.391Z,15.66
2022-08-25T02:26:08.059Z,18.10
2022-08-25T02:29:12.095Z,17.89
2022-08-25T02:32:16.267Z,18.11
2022-08-25T02:35:19.978Z,17.44
2022-08-25T02:38:24.081Z,16.63
2022-08-25T02:41:31.279Z,15.99
2022-08-25T02:44:35.165Z,16.20
2022-08-25T02:47:38.175Z,17.06
2022-08-25T02:50:42.181Z,17.36
2022-08-25T02:53:49.266Z,18.40
2022-08-25T02:56:52.474Z,20.16
2022-08-25T02:59:56.570Z,21.18
2022-08-25T03:03:00.069Z,21.52
2022-08-25T03:06:03.919Z,22.38
2022-08-25T03:09:08.303Z,22.31
2022-08-25T03:12:13.109Z,21.21
2022-08-25T03:15:18.117Z,22.54
2022-08-25T03:18:23.858Z,21.94
2022-08-25T03:21:29.908Z,21.11
2022-08-25T03:24:34.232Z,21.83
2022-08-25T03:27:38.080Z,21.90
2022-08-25T03:30:43.236Z,23.24
2022-08-25T03:33:47.110Z,22.15
2022-08-25T03:36:53.517Z,20.66
2022-08-25T03:39:57.472Z,18.51
2022-08-25T03:43:01.018Z,19.92
2022-08-25T03:46:04.812Z,20.66
2022-08-25T03:49:11.151Z,18.65
2022-08-25T03:52:14.138Z,18.88
2022-08-25T03:55:18.027Z,17.81
2022-08-25T03:58:21.729Z,17.62
2022-08-25T04:01:26.250Z,17.72
2022-08-25T04:04:30.014Z,17.87
2022-08-25T04:07:33.430Z,17.80
2022-08-25T04:10:38.827Z,17.67
2022-08-25T04:13:46.623Z,17.63
2022-08-25T04:16:50.904Z,18.96
2022-08-25T04:19:54.445Z,19.70
2022-08-25T04:23:01.766Z,18.32
2022-08-25T04:26:14.367Z,17.92
2022-08-25T04:29:23.664Z,18.91
2022-08-25T04:32:28.373Z,20.70
2022-08-25T04:35:32.213Z,20.49
2022-08-25T04:38:36.890Z,19.62
2022-08-25T04:41:40.760Z,19.60
2022-08-25T04:44:44.856Z,18.87
2022-08-25T04:47:51.767Z,18.44
2022-08-25T04:50:59.171Z,19.37
2022-08-25T04:54:08.616Z,20.18
2022-08-25T04:57:12.764Z,19.83
2022-08-25T05:00:17.209Z,19.29
2022-08-25T05:03:20.726Z,18.82
2022-08-25T05:06:24.297Z,18.11
2022-08-25T05:09:28.295Z,18.07
2022-08-25T05:12:33.015Z,18.16
2022-08-25T05:15:52.419Z,19.51
2022-08-25T05:18:57.167Z,19.62
2022-08-25T05:22:00.937Z,18.91
2022-08-25T05:25:04.884Z,18.26
2022-08-25T05:28:08.732Z,17.93
2022-08-25T05:31:14.899Z,17.99
2022-08-25T05:34:19.979Z,17.99
2022-08-25T05:37:23.833Z,17.90
2022-08-25T05:40:27.432Z,17.89
2022-08-25T05:43:31.946Z,18.10
2022-08-25T05:46:35.808Z,18.72
2022-08-25T05:49:38.910Z,19.86
2022-08-25T05:52:42.906Z,19.75
2022-08-25T05:55:46.597Z,20.63
2022-08-25T05:58:51.208Z,24.00
2022-08-25T06:02:13.417Z,27.17
2022-08-25T06:05:22.867Z,28.29
2022-08-25T06:08:30.957Z,27.53
2022-08-25T06:11:35.106Z,24.14
2022-08-25T06:14:39.008Z,22.86
2022-08-25T06:17:43.881Z,21.35
2022-08-25T06:20:47.575Z,20.62
2022-08-25T06:23:51.328Z,22.62
2022-08-25T06:26:57.499Z,24.72
2022-08-25T06:30:07.818Z,24.75
2022-08-25T06:33:12.190Z,23.60
2022-08-25T06:36:16.628Z,23.38
2022-08-25T06:39:21.461Z,23.32
2022-08-25T06:42:25.668Z,23.72
2022-08-25T06:45:28.905Z,23.53
2022-08-25T06:48:32.522Z,22.57
2022-08-25T06:51:37.096Z,21.56
2022-08-25T06:54:40.651Z,21.24
2022-08-25T06:57:44.507Z,21.38
2022-08-25T07:00:48.646Z,22.00
2022-08-25T07:03:55.487Z,22.69
2022-08-25T07:07:00.196Z,23.12
2022-08-25T07:10:05.542Z,23.47
2022-08-25T07:13:09.449Z,23.17
2022-08-25T07:16:15.518Z,21.98
2022-08-25T07:19:23.091Z,21.80
2022-08-25T07:22:26.901Z,21.05
2022-08-25T07:25:30.974Z,21.33
2022-08-25T07:28:34.756Z,22.02
2022-08-25T07:31:39.751Z,23.09
2022-08-25T07:35:01.342Z,24.42
2022-08-25T07:38:09.010Z,26.02
2022-08-25T07:41:13.904Z,24.41
2022-08-25T07:44:18.635Z,23.10
2022-08-25T07:47:23.079Z,24.01
2022-08-25T07:50:27.167Z,25.21
2022-08-25T07:53:31.487Z,23.42
2022-08-25T07:56:35.023Z,23.34
2022-08-25T07:59:43.861Z,22.18
2022-08-25T08:02:48.014Z,22.02
2022-08-25T08:05:52.306Z,22.43
2022-08-25T08:08:58.937Z,21.72
2022-08-25T08:12:02.894Z,21.00
2022-08-25T08:15:10.112Z,20.42
2022-08-25T08:18:14.950Z,21.41
2022-08-25T08:21:20.552Z,24.58
2022-08-25T08:24:40.848Z,27.66
2022-08-25T08:27:47.864Z,28.20
2022-08-25T08:30:53.588Z,27.02
2022-08-25T08:33:58.613Z,26.55
2022-08-25T08:37:03.373Z,27.14
2022-08-25T08:40:08.676Z,27.76
2022-08-25T08:43:19.059Z,26.48
2022-08-25T08:46:26.055Z,24.63
2022-08-25T08:49:48.315Z,23.56
2022-08-25T08:53:03.740Z,25.31
2022-08-25T08:56:21.294Z,25.26
2022-08-25T08:59:29.957Z,25.84
2022-08-25T09:02:50.539Z,25.06
2022-08-25T09:06:01.287Z,28.13
2022-08-25T09:09:07.890Z,28.69
2022-08-25T09:12:36.614Z,25.54
2022-08-25T09:16:34.922Z,23.36
2022-08-25T09:19:47.795Z,22.36
2022-08-25T09:23:28.904Z,21.80
2022-08-25T09:26:49.555Z,21.16
2022-08-25T09:30:19.909Z,20.69
2022-08-25T09:33:26.249Z,20.23
2022-08-25T09:36:37.249Z,20.42
2022-08-25T09:39:42.618Z,20.19
2022-08-25T09:42:49.742Z,19.88
2022-08-25T09:46:28.431Z,19.66
2022-08-25T09:49:34.862Z,19.12
2022-08-25T09:52:41.453Z,18.73
2022-08-25T09:56:00.186Z,18.18
2022-08-25T09:59:34.267Z,17.99
2022-08-25T10:02:39.102Z,17.64
2022-08-25T10:06:00.775Z,17.26
2022-08-25T10:09:08.130Z,17.16
2022-08-25T10:12:21.906Z,17.15
2022-08-25T10:15:39.275Z,16.91
2022-08-25T10:18:42.473Z,16.68
2022-08-25T10:21:46.534Z,16.38
2022-08-25T10:24:51.367Z,16.20
2022-08-25T10:28:00.787Z,16.22
2022-08-25T10:31:42.099Z,16.03
2022-08-25T10:34:57.138Z,15.89
2022-08-25T10:38:38.894Z,15.77
2022-08-25T10:42:14.290Z,15.70
2022-08-25T10:45:41.149Z,15.70
2022-08-25T10:48:50.666Z,15.60
2022-08-25T10:52:11.613Z,15.74
2022-08-25T10:55:48.123Z,15.63
2022-08-25T10:59:17.884Z,15.52
2022-08-25T11:02:46.238Z,15.35
2022-08-25T11:06:00.252Z,15.28
2022-08-25T11:09:09.279Z,15.21
2022-08-25T11:12:30.740Z,15.21
2022-08-25T11:16:13.649Z,15.15
2022-08-25T11:19:33.788Z,15.19
2022-08-25T11:22:44.696Z,15.06
2022-08-25T11:26:02.322Z,14.91
2022-08-25T11:29:13.595Z,14.83
2022-08-25T11:32:21.491Z,14.78
2022-08-25T11:35:40.715Z,14.77
2022-08-25T11:39:07.148Z,14.66
2022-08-25T11:42:36.008Z,14.59
2022-08-25T11:46:16.992Z,14.46
2022-08-25T11:49:27.151Z,14.42
2022-08-25T11:52:39.614Z,14.27
2022-08-25T11:55:44.679Z,14.18
2022-08-25T11:58:52.887Z,14.10
2022-08-25T12:01:57.075Z,13.92
2022-08-25T12:05:01.634Z,13.76
2022-08-25T12:08:25.596Z,13.68
2022-08-25T12:11:52.247Z,13.61
2022-08-25T12:14:56.055Z,13.49
2022-08-25T12:18:13.730Z,13.47
2022-08-25T12:21:31.200Z,13.40
2022-08-25T12:24:47.619Z,13.35
2022-08-25T12:28:09.170Z,13.29
2022-08-25T12:31:24.434Z,13.32
2022-08-25T12:35:07.146Z,13.45
2022-08-25T12:38:30.125Z,13.61
2022-08-25T12:41:33.712Z,13.60
2022-08-25T12:44:42.412Z,13.61
2022-08-25T12:47:48.147Z,13.57
2022-08-25T12:51:09.691Z,13.58
2022-08-25T12:54:26.007Z,13.54
2022-08-25T12:57:44.630Z,13.60
2022-08-25T13:01:35.349Z,13.59
2022-08-25T13:04:58.622Z,13.58
2022-08-25T13:08:36.953Z,13.51
2022-08-25T13:11:48.050Z,13.44
2022-08-25T13:14:57.612Z,13.39
2022-08-25T13:18:26.881Z,13.37
2022-08-25T13:21:42.500Z,13.31
2022-08-25T13:24:50.840Z,13.11
2022-08-25T13:28:05.184Z,12.95
2022-08-25T13:31:17.461Z,12.86
2022-08-25T13:34:34.527Z,12.86
2022-08-25T13:37:39.133Z,12.91
2022-08-25T13:40:43.434Z,12.98
2022-08-25T13:43:48.781Z,12.96
2022-08-25T13:47:14.330Z,12.97
2022-08-25T13:50:26.989Z,12.93
2022-08-25T13:53:31.749Z,12.74
2022-08-25T13:56:41.843Z,12.71
2022-08-25T13:59:51.767Z,12.77
2022-08-25T14:02:56.954Z,12.73
2022-08-25T14:06:15.738Z,12.72
2022-08-25T14:09:27.975Z,12.62
2022-08-25T14:12:46.965Z,12.70
2022-08-25T14:15:52.349Z,12.58
2022-08-25T14:19:02.447Z,12.53
2022-08-25T14:22:06.960Z,12.42
2022-08-25T14:25:10.603Z,12.39
2022-08-25T14:28:18.889Z,12.37
2022-08-25T14:31:30.458Z,12.37
2022-08-25T14:34:37.898Z,12.32
2022-08-25T14:37:44.978Z,12.26
2022-08-25T14:40:49.170Z,12.22
2022-08-25T14:43:54.473Z,12.18
2022-08-25T14:47:00.278Z,12.12
2022-08-25T14:50:04.374Z,12.09
2022-08-25T14:53:12.640Z,12.05
2022-08-25T14:56:16.190Z,11.99
2022-08-25T14:59:20.588Z,11.92
2022-08-25T15:02:29.514Z,11.88
2022-08-25T15:05:34.134Z,11.80
2022-08-25T15:08:56.474Z,11.78
2022-08-25T15:12:00.628Z,11.65
2022-08-25T15:15:04.920Z,11.50
2022-08-25T15:18:09.598Z,11.46
2022-08-25T15:21:13.612Z,11.39
2022-08-25T15:24:20.470Z,11.38
2022-08-25T15:27:24.293Z,11.38
2022-08-25T15:30:35.584Z,11.22
2022-08-25T15:33:43.069Z,11.19
2022-08-25T15:36:47.626Z,11.10
2022-08-25T15:39:51.153Z,11.01
2022-08-25T15:42:56.147Z,11.05
2022-08-25T15:45:59.902Z,11.08
2022-08-25T15:49:03.730Z,11.12
2022-08-25T15:52:07.841Z,11.11
2022-08-25T15:55:12.207Z,11.15
2022-08-25T15:58:16.675Z,11.15
2022-08-25T16:01:26.973Z,11.13
2022-08-25T16:04:31.818Z,11.03
2022-08-25T16:07:35.908Z,10.84
2022-08-25T16:10:42.623Z,10.75
2022-08-25T16:13:48.497Z,10.78
2022-08-25T16:16:53.034Z,10.79
2022-08-25T16:19:56.807Z,10.83
2022-08-25T16:23:04.009Z,10.83
2022-08-25T16:26:10.147Z,10.81
2022-08-25T16:29:17.741Z,10.72
2022-08-25T16:32:22.040Z,10.70
2022-08-25T16:35:25.744Z,10.70
2022-08-25T16:38:29.106Z,10.76
2022-08-25T16:41:36.143Z,10.72
2022-08-25T16:44:40.839Z,10.64
2022-08-25T16:47:44.746Z,10.54
2022-08-25T16:50:48.492Z,10.45
2022-08-25T16:54:10.005Z,10.41
2022-08-25T16:57:14.309Z,10.31
2022-08-25T17:00:22.907Z,10.08
2022-08-25T17:03:29.051Z,9.88
2022-08-25T17:06:37.684Z,9.87
2022-08-25T17:09:41.026Z,9.91
2022-08-25T17:12:45.137Z,9.92
2022-08-25T17:15:52.354Z,9.94
2022-08-25T17:18:59.090Z,9.98
2022-08-25T17:22:02.618Z,9.96
2022-08-25T17:25:07.875Z,9.96
2022-08-25T17:28:12.968Z,9.98
2022-08-25T17:31:17.069Z,10.00
2022-08-25T17:34:23.196Z,9.90
2022-08-25T17:37:27.484Z,9.87
2022-08-25T17:40:31.336Z,9.82
2022-08-25T17:43:38.550Z,9.77
2022-08-25T17:46:47.460Z,9.69
2022-08-25T17:49:51.595Z,9.59
2022-08-25T17:52:55.689Z,9.61
2022-08-25T17:56:05.756Z,9.64
2022-08-25T17:59:10.068Z,9.63
2022-08-25T18:02:14.065Z,9.56
2022-08-25T18:05:18.831Z,9.50
2022-08-25T18:08:29.909Z,9.51
2022-08-25T18:11:39.176Z,9.44
2022-08-25T18:14:42.823Z,9.43
2022-08-25T18:17:50.471Z,9.44
2022-08-25T18:20:53.800Z,9.41
2022-08-25T18:23:57.713Z,9.45
2022-08-25T18:27:01.566Z,9.43
2022-08-25T18:30:07.310Z,9.44
2022-08-25T18:33:12.104Z,9.41
2022-08-25T18:36:15.829Z,9.44
2022-08-25T18:39:37.682Z,9.42
2022-08-25T18:42:40.751Z,9.43
2022-08-25T18:45:50.807Z,9.43
2022-08-25T18:48:56.170Z,9.37
2022-08-25T18:52:00.226Z,9.35
2022-08-25T18:55:03.780Z,9.41
2022-08-25T18:58:09.046Z,9.34
2022-08-25T19:01:16.434Z,9.32
2022-08-25T19:04:20.076Z,9.30
2022-08-25T19:07:26.101Z,9.33
2022-08-25T19:10:31.122Z,9.41
2022-08-25T19:13:34.199Z,9.50
2022-08-25T19:16:40.753Z,9.53
2022-08-25T19:19:45.224Z,9.61
2022-08-25T19:22:50.245Z,9.66
2022-08-25T19:25:53.897Z,9.71
2022-08-25T19:28:59.791Z,9.70
2022-08-25T19:32:04.777Z,9.70
2022-08-25T19:35:13.438Z,9.59
2022-08-25T19:38:34.205Z,9.49
2022-08-25T19:41:39.462Z,9.34
2022-08-25T19:44:44.528Z,9.35
2022-08-25T19:47:48.394Z,9.37
2022-08-25T19:50:56.162Z,9.29
2022-08-25T19:54:02.790Z,9.25
2022-08-25T19:57:11.077Z,9.30
2022-08-25T20:00:19.757Z,9.23
2022-08-25T20:03:22.876Z,9.16
2022-08-25T20:06:27.753Z,9.19
2022-08-25T20:09:39.136Z,9.14
2022-08-25T20:12:48.240Z,9.04
2022-08-25T20:15:51.261Z,8.87
2022-08-25T20:19:01.775Z,8.76
2022-08-25T20:22:05.848Z,8.76
2022-08-25T20:25:24.454Z,8.74
2022-08-25T20:28:28.665Z,8.67
2022-08-25T20:31:33.174Z,8.59
2022-08-25T20:34:37.007Z,8.43
2022-08-25T20:37:43.272Z,8.40
2022-08-25T20:40:46.887Z,8.39
2022-08-25T20:43:52.223Z,8.51
2022-08-25T20:46:57.880Z,8.61
2022-08-25T20:50:06.023Z,8.65
2022-08-25T20:53:10.328Z,8.72
2022-08-25T20:56:19.425Z,8.80
2022-08-25T20:59:27.336Z,8.82
2022-08-25T21:02:31.625Z,8.85
2022-08-25T21:05:39.245Z,8.82
2022-08-25T21:08:46.747Z,8.78
2022-08-25T21:11:54.451Z,8.76
2022-08-25T21:14:57.463Z,8.69
2022-08-25T21:18:01.002Z,8.68
2022-08-25T21:21:14.542Z,8.69
2022-08-25T21:24:20.255Z,8.64
2022-08-25T21:27:24.113Z,8.65
2022-08-25T21:30:29.198Z,8.66
2022-08-25T21:33:32.197Z,8.71
2022-08-25T21:36:35.322Z,8.73
2022-08-25T21:39:38.861Z,8.79
2022-08-25T21:42:44.338Z,8.75
2022-08-25T21:45:48.039Z,8.80
2022-08-25T21:48:52.441Z,8.89
2022-08-25T21:52:00.791Z,8.82
2022-08-25T21:55:05.142Z,8.83
2022-08-25T21:58:09.082Z,8.91
2022-08-25T22:01:17.058Z,8.99
2022-08-25T22:04:22.889Z,9.04
2022-08-25T22:07:26.796Z,9.08
2022-08-25T22:10:30.817Z,9.17
2022-08-25T22:13:37.187Z,9.29
2022-08-25T22:16:45.594Z,9.31
2022-08-25T22:19:49.524Z,9.16
2022-08-25T22:22:57.283Z,8.98
2022-08-25T22:26:03.926Z,9.00
2022-08-25T22:29:08.542Z,9.02
2022-08-25T22:32:13.623Z,9.08
2022-08-25T22:35:17.671Z,9.10
2022-08-25T22:38:23.034Z,9.13
2022-08-25T22:41:29.574Z,9.15
2022-08-25T22:44:32.978Z,9.20
2022-08-25T22:47:36.922Z,9.15
2022-08-25T22:50:40.773Z,9.18
2022-08-25T22:53:45.917Z,9.27
2022-08-25T22:56:49.940Z,9.32
2022-08-25T22:59:57.099Z,9.35
2022-08-25T23:03:01.342Z,9.38
2022-08-25T23:06:05.159Z,9.52
2022-08-25T23:09:11.268Z,9.75
2022-08-25T23:12:15.220Z,9.97
2022-08-25T23:15:18.586Z,10.11
2022-08-25T23:18:22.022Z,10.27
2022-08-25T23:21:44.952Z,10.37
2022-08-25T23:24:52.952Z,10.47
2022-08-25T23:27:56.581Z,10.55
2022-08-25T23:31:00.574Z,10.65
2022-08-25T23:34:04.946Z,10.69
2022-08-25T23:37:11.061Z,10.78
2022-08-25T23:40:19.185Z,10.86
2022-08-25T23:43:23.589Z,10.94
2022-08-25T23:46:33.088Z,11.08
2022-08-25T23:49:36.784Z,11.26
2022-08-25T23:52:40.665Z,11.40
2022-08-25T23:55:53.153Z,11.63
2022-08-25T23:58:58.017Z,11.85
